createdAt,value
2023-04-05T00:08:50.273Z,-1.43
2023-04-05T00:18:52.752Z,-1.45
2023-04-05T00:28:55.069Z,-1.53
2023-04-05T00:38:57.470Z,-1.58
2023-04-05T00:48:59.898Z,-1.52
2023-04-05T00:59:02.484Z,-1.61
2023-04-05T01:09:26.212Z,-1.67
2023-04-05T01:19:30.290Z,-1.67
2023-04-05T01:29:50.902Z,-1.65
2023-04-05T01:39:53.489Z,-1.63
2023-04-05T01:49:55.875Z,-1.64
2023-04-05T01:59:58.336Z,-1.58
2023-04-05T02:10:00.676Z,-1.54
2023-04-05T02:20:03.140Z,-1.50
2023-04-05T02:30:06.302Z,-1.46
2023-04-05T02:40:12.048Z,-1.48
2023-04-05T02:50:15.136Z,-1.59
2023-04-05T03:00:17.950Z,-1.70
2023-04-05T03:10:26.742Z,-1.88
2023-04-05T03:20:28.934Z,-2.03
2023-04-05T03:30:34.651Z,-2.13
2023-04-05T03:40:37.018Z,-2.35
2023-04-05T03:50:39.553Z,-2.55
2023-04-05T04:00:42.151Z,-2.67
2023-04-05T04:10:44.577Z,-2.80
2023-04-05T04:20:48.200Z,-2.88
2023-04-05T04:30:50.521Z,-2.89
2023-04-05T04:40:54.181Z,-3.07
2023-04-05T04:50:57.718Z,-3.18
2023-04-05T05:01:00.565Z,-3.30
2023-04-05T05:11:06.735Z,-3.34
2023-04-05T05:21:09.103Z,-3.33
2023-04-05T05:31:12.603Z,-3.32
2023-04-05T05:41:15.346Z,-3.22
2023-04-05T05:51:18.671Z,-3.08
2023-04-05T06:01:23.540Z,-2.81
2023-04-05T06:11:27.081Z,-2.40
2023-04-05T06:21:29.573Z,-1.88
2023-04-05T06:31:34.069Z,-1.38
2023-04-05T06:41:36.664Z,-0.91
2023-04-05T06:51:39.261Z,-0.43
2023-04-05T07:01:42.691Z,-0.04
2023-04-05T07:11:46.120Z,0.31
2023-04-05T07:21:49.682Z,0.88
2023-04-05T07:31:52.306Z,1.44
2023-04-05T07:41:54.905Z,1.93
2023-04-05T07:51:58.226Z,2.32
2023-04-05T08:02:05.017Z,2.76
2023-04-05T08:12:15.345Z,3.23
2023-04-05T08:22:19.294Z,3.69
2023-04-05T08:32:22.087Z,4.04
2023-04-05T08:42:33.279Z,4.49
2023-04-05T08:52:38.850Z,4.86
2023-04-05T09:02:45.805Z,5.09
2023-04-05T09:12:48.534Z,5.58
2023-04-05T09:22:51.454Z,6.03
2023-04-05T09:32:55.884Z,6.18
2023-04-05T09:42:58.608Z,6.59
2023-04-05T09:53:11.006Z,6.67
2023-04-05T10:03:13.649Z,7.00
2023-04-05T10:13:17.719Z,7.32
2023-04-05T10:23:28.618Z,7.64
2023-04-05T10:33:46.451Z,7.87
2023-04-05T10:43:52.420Z,7.84
2023-04-05T10:53:56.898Z,8.09
2023-04-05T11:04:13.404Z,8.61
2023-04-05T11:14:26.959Z,8.78
2023-04-05T11:24:53.826Z,8.91
2023-04-05T11:35:06.912Z,9.18
2023-04-05T11:45:10.485Z,9.61
2023-04-05T11:55:13.047Z,9.77
2023-04-05T12:05:15.775Z,9.44
2023-04-05T12:15:19.478Z,9.87
2023-04-05T12:25:22.786Z,10.45
2023-04-05T12:35:33.321Z,10.61
2023-04-05T12:45:44.225Z,10.75
2023-04-05T12:55:57.892Z,11.85
2023-04-05T13:06:00.505Z,12.09
2023-04-05T13:16:03.024Z,12.63
2023-04-05T13:26:06.492Z,13.15
2023-04-05T13:36:09.752Z,13.19
2023-04-05T13:46:12.350Z,13.42
2023-04-05T13:56:15.194Z,13.54
2023-04-05T14:06:18.156Z,14.30
2023-04-05T14:16:20.686Z,14.76
2023-04-05T14:26:26.578Z,14.75
2023-04-05T14:36:29.361Z,14.63
2023-04-05T14:46:32.013Z,14.15
2023-04-05T14:56:34.723Z,13.92
2023-04-05T15:06:38.111Z,13.66
2023-04-05T15:16:40.669Z,13.45
2023-04-05T15:26:43.277Z,13.46
2023-04-05T15:36:46.610Z,13.68
2023-04-05T15:46:49.585Z,13.44
2023-04-05T15:56:52.248Z,13.01
2023-04-05T16:06:55.726Z,12.77
2023-04-05T16:16:58.481Z,12.62
2023-04-05T16:27:01.157Z,12.82
2023-04-05T16:37:03.794Z,12.53
2023-04-05T16:47:06.994Z,11.84
2023-04-05T16:57:09.407Z,11.39
2023-04-05T17:07:12.035Z,10.95
2023-04-05T17:17:14.752Z,10.70
2023-04-05T17:27:17.315Z,10.37
2023-04-05T17:37:19.983Z,9.58
2023-04-05T17:47:22.483Z,8.64
2023-04-05T17:57:25.153Z,7.83
2023-04-05T18:07:27.858Z,7.03
2023-04-05T18:17:30.397Z,6.27
2023-04-05T18:27:33.616Z,5.63
2023-04-05T18:37:36.926Z,5.05
2023-04-05T18:47:39.704Z,4.50
2023-04-05T18:57:42.368Z,4.00
2023-04-05T19:07:45.196Z,3.55
2023-04-05T19:17:47.856Z,3.15
2023-04-05T19:27:50.964Z,2.85
2023-04-05T19:37:53.844Z,2.58
2023-04-05T19:47:58.358Z,2.37
2023-04-05T19:58:03.370Z,2.23
2023-04-05T20:08:08.631Z,2.09
2023-04-05T20:18:15.350Z,1.83
2023-04-05T20:28:34.633Z,1.61
2023-04-05T20:38:41.500Z,1.40
2023-04-05T20:48:45.037Z,1.16
2023-04-05T20:58:47.660Z,0.93
2023-04-05T21:08:50.353Z,0.76
2023-04-05T21:18:53.332Z,0.56
2023-04-05T21:28:56.150Z,0.37
2023-04-05T21:38:58.718Z,0.24
2023-04-05T21:49:01.206Z,0.07
2023-04-05T21:59:04.246Z,-0.05
2023-04-05T22:09:07.644Z,-0.19
2023-04-05T22:19:13.822Z,-0.33
2023-04-05T22:29:17.208Z,-0.46
2023-04-05T22:39:19.593Z,-0.59
2023-04-05T22:49:22.594Z,-0.69
2023-04-05T22:59:25.169Z,-0.82
2023-04-05T23:09:27.804Z,-0.91
2023-04-05T23:19:30.133Z,-1.01
2023-04-05T23:29:32.418Z,-1.11
2023-04-05T23:39:34.955Z,-1.19
2023-04-05T23:49:37.431Z,-1.28
2023-04-05T23:59:40.346Z,-1.35
